Time;durP1;ratioP1;P1;durP2;ratioP2;P2;SDS_P1;SDS_P2;PMS_P1;PMS_P2;Temp;Humidity;BMP_temperature;BMP_pressure;BME280_temperature;BME280_humidity;BME280_pressure;Samples;Min_cycle;Max_cycle;Signal;HPM_P1;HPM_P2
2023/09/27 00:02:19;;;;;;;;;;;;;;;18.92;100.00;98381.09;5118375;28;19930;-71
2023/09/27 00:04:45;;;;;;;;;;;;;;;18.94;100.00;98380.81;5119152;28;19923;-72
2023/09/27 00:07:12;;;;;;;;;;;;;;;18.91;100.00;98384.13;5094727;28;19924;-70
2023/09/27 00:09:38;;;;;;;;;;;;;;;18.88;100.00;98382.81;5114514;28;19992;-71
2023/09/27 00:12:05;;;;;;;;;;;;;;;18.88;100.00;98390.91;5118261;28;20018;-71
2023/09/27 00:14:33;;;;;;;;;;;;;;;18.87;100.00;98386.63;5119115;28;19920;-70
2023/09/27 00:16:59;;;;;;;;;;;;;;;18.87;100.00;98386.63;5104898;28;19924;-71
2023/09/27 00:19:26;;;;;;;;;;;;;;;18.86;100.00;98383.13;5120220;28;20019;-71
2023/09/27 00:21:53;;;;;;;;;;;;;;;18.85;100.00;98378.00;5113763;28;19928;-72
2023/09/27 00:24:19;;;;;;;;;;;;;;;18.88;100.00;98376.63;5121910;28;19928;-70
2023/09/27 00:26:46;;;;;;;;;;;;;;;18.86;100.00;98366.88;5104519;28;19924;-71
2023/09/27 00:29:12;;;;;;;;;;;;;;;18.85;100.00;98369.88;5116595;28;19919;-71
2023/09/27 00:31:40;;;;;;;;;;;;;;;18.85;100.00;98375.28;5117953;28;19982;-71
2023/09/27 00:34:06;;;;;;;;;;;;;;;18.83;100.00;98374.81;5120959;28;19924;-71
2023/09/27 00:36:33;;;;;;;;;;;;;;;18.82;100.00;98379.41;5102993;28;19924;-71
2023/09/27 00:38:59;;;;;;;;;;;;;;;18.79;100.00;98381.94;5122398;28;19924;-72
2023/09/27 00:41:25;;;;;;;;;;;;;;;18.78;100.00;98399.28;5117888;28;19928;-71
2023/09/27 00:43:52;;;;;;;;;;;;;;;18.77;100.00;98390.38;5115985;28;19931;-71
2023/09/27 00:46:20;;;;;;;;;;;;;;;18.77;100.00;98384.16;5115214;28;19963;-71
2023/09/27 00:48:47;;;;;;;;;;;;;;;18.75;100.00;98380.94;5121006;28;19924;-71
2023/09/27 00:51:14;;;;;;;;;;;;;;;18.72;100.00;98382.34;5113928;28;19958;-71
2023/09/27 00:53:42;;;;;;;;;;;;;;;18.73;100.00;98383.16;5119760;28;19954;-71
2023/09/27 00:56:09;;;;;;;;;;;;;;;18.73;100.00;98373.13;5113137;28;19928;-72
2023/09/27 00:58:35;;;;;;;;;;;;;;;18.72;100.00;98373.44;5120315;28;19924;-72
2023/09/27 01:01:02;;;;;;;;;;;;;;;18.71;100.00;98369.13;5120423;28;19924;-71
2023/09/27 01:03:28;;;;;;;;;;;;;;;18.71;100.00;98369.94;5118982;28;19945;-72
2023/09/27 01:05:56;;;;;;;;;;;;;;;18.70;100.00;98362.09;5115633;28;20465;-71
2023/09/27 01:08:23;;;;;;;;;;;;;;;18.69;100.00;98369.41;5119499;28;19946;-70
2023/09/27 01:10:49;;;;;;;;;;;;;;;18.68;100.00;98364.31;5120712;28;19959;-71
2023/09/27 01:13:15;;;;;;;;;;;;;;;18.68;100.00;98361.63;5120491;28;19952;-71
2023/09/27 01:15:42;;;;;;;;;;;;;;;18.65;100.00;98370.34;5108207;28;20526;-71
2023/09/27 01:18:08;;;;;;;;;;;;;;;18.63;100.00;98372.56;5114183;28;19935;-71
2023/09/27 01:20:35;;;;;;;;;;;;;;;18.63;100.00;98369.84;5117522;28;19964;-71
2023/09/27 01:23:03;;;;;;;;;;;;;;;18.62;100.00;98382.59;5120328;28;19928;-70
2023/09/27 01:25:30;;;;;;;;;;;;;;;18.62;100.00;98379.06;5120330;28;19956;-71
2023/09/27 01:27:57;;;;;;;;;;;;;;;18.61;100.00;98380.97;5120569;28;19924;-72
2023/09/27 01:30:24;;;;;;;;;;;;;;;18.60;100.00;98368.53;5121390;28;19931;-72
2023/09/27 01:32:51;;;;;;;;;;;;;;;18.57;100.00;98362.97;5115472;28;19924;-72
2023/09/27 01:35:17;;;;;;;;;;;;;;;18.58;100.00;98369.94;5120494;28;19924;-72
2023/09/27 01:37:43;;;;;;;;;;;;;;;18.58;100.00;98365.34;5121296;28;19955;-72
2023/09/27 01:40:17;;;;;;;;;;;;;;;18.56;100.00;98364.06;5122268;28;19991;-71
2023/09/27 01:42:43;;;;;;;;;;;;;;;18.54;100.00;98352.72;5113561;28;19958;-71
2023/09/27 01:45:10;;;;;;;;;;;;;;;18.54;100.00;98361.63;5119670;28;19931;-71
2023/09/27 01:47:37;;;;;;;;;;;;;;;18.53;100.00;98367.38;5107783;28;19997;-71
2023/09/27 01:50:03;;;;;;;;;;;;;;;18.52;100.00;98363.84;5120630;28;19962;-71
2023/09/27 01:52:30;;;;;;;;;;;;;;;18.53;100.00;98356.53;5118762;28;19919;-71
2023/09/27 01:54:56;;;;;;;;;;;;;;;18.52;100.00;98357.63;5114688;28;19946;-71
2023/09/27 01:57:24;;;;;;;;;;;;;;;18.50;100.00;98357.97;5118237;28;19996;-71
2023/09/27 01:59:50;;;;;;;;;;;;;;;18.52;100.00;98365.75;5119369;28;19924;-71
2023/09/27 02:02:17;;;;;;;;;;;;;;;18.48;100.00;98362.00;5119920;28;19932;-71
2023/09/27 02:04:43;;;;;;;;;;;;;;;18.48;100.00;98364.72;5119974;28;19949;-71
2023/09/27 02:07:09;;;;;;;;;;;;;;;18.46;100.00;98366.94;5114634;28;19938;-71
2023/09/27 02:09:36;;;;;;;;;;;;;;;18.45;100.00;98360.72;5116181;28;19934;-71
2023/09/27 02:12:02;;;;;;;;;;;;;;;18.44;100.00;98358.34;5118908;28;19958;-71
2023/09/27 02:14:30;;;;;;;;;;;;;;;18.41;100.00;98359.75;5119667;28;19939;-71
2023/09/27 02:16:56;;;;;;;;;;;;;;;18.41;100.00;98364.34;5105073;28;19931;-71
2023/09/27 02:19:23;;;;;;;;;;;;;;;18.39;100.00;98363.84;5119846;28;19951;-71
2023/09/27 02:21:49;;;;;;;;;;;;;;;18.39;100.00;98364.63;5113936;28;19920;-71
2023/09/27 02:24:16;;;;;;;;;;;;;;;18.37;100.00;98352.53;5118489;28;19959;-71
2023/09/27 02:26:43;;;;;;;;;;;;;;;18.23;100.00;98364.16;5119500;28;19967;-71
2023/09/27 02:29:09;;;;;;;;;;;;;;;18.19;100.00;98354.25;5113988;28;19938;-71
2023/09/27 02:31:38;;;;;;;;;;;;;;;18.22;100.00;98359.88;5115249;28;19924;-71
2023/09/27 02:34:04;;;;;;;;;;;;;;;18.06;100.00;98352.34;5118534;28;19924;-71
2023/09/27 02:36:30;;;;;;;;;;;;;;;18.13;100.00;98358.16;5118923;28;19939;-71
2023/09/27 02:38:57;;;;;;;;;;;;;;;18.18;100.00;98349.94;5119432;28;19931;-71
2023/09/27 02:41:23;;;;;;;;;;;;;;;18.16;100.00;98347.56;5115778;28;19920;-72
2023/09/27 02:43:49;;;;;;;;;;;;;;;18.19;100.00;98354.25;5113313;28;19931;-72
2023/09/27 02:46:16;;;;;;;;;;;;;;;18.18;100.00;98356.16;5117178;28;19924;-72
2023/09/27 02:48:44;;;;;;;;;;;;;;;18.15;100.00;98356.75;5100425;28;19958;-71
2023/09/27 02:51:15;;;;;;;;;;;;;;;18.13;100.00;98356.25;5119311;28;19952;-71
2023/09/27 02:53:41;;;;;;;;;;;;;;;18.13;100.00;98358.97;5118505;28;19923;-71
2023/09/27 02:56:08;;;;;;;;;;;;;;;18.11;100.00;98361.16;5113781;28;19924;-72
2023/09/27 02:58:34;;;;;;;;;;;;;;;17.96;100.00;98364.16;5115534;28;19924;-72
2023/09/27 03:01:01;;;;;;;;;;;;;;;17.89;100.00;98363.75;5118517;28;19939;-71
2023/09/27 03:03:30;;;;;;;;;;;;;;;17.85;100.00;98361.94;5119217;28;19931;-71
2023/09/27 03:05:58;;;;;;;;;;;;;;;17.94;100.00;98371.78;5119678;28;19930;-71
2023/09/27 03:08:24;;;;;;;;;;;;;;;17.96;100.00;98377.66;5114893;28;19923;-71
2023/09/27 03:10:51;;;;;;;;;;;;;;;18.02;100.00;98383.78;5113264;28;19924;-72
2023/09/27 03:13:17;;;;;;;;;;;;;;;18.05;100.00;98378.56;5118278;28;19924;-70
2023/09/27 03:15:44;;;;;;;;;;;;;;;18.09;100.00;98382.28;5113106;28;19932;-70
2023/09/27 03:18:11;;;;;;;;;;;;;;;18.10;100.00;98383.91;5101762;28;19931;-70
2023/09/27 03:20:37;;;;;;;;;;;;;;;18.13;100.00;98385.19;5110394;28;19995;-70
2023/09/27 03:23:05;;;;;;;;;;;;;;;18.08;100.00;98387.97;5118503;28;19957;-71
2023/09/27 03:25:33;;;;;;;;;;;;;;;18.09;100.00;98387.69;5119072;28;19942;-71
2023/09/27 03:27:59;;;;;;;;;;;;;;;18.10;100.00;98385.78;5119260;28;19934;-70
2023/09/27 03:30:25;;;;;;;;;;;;;;;18.08;100.00;98380.66;5117220;28;19935;-70
2023/09/27 03:32:52;;;;;;;;;;;;;;;17.97;100.00;98392.78;5114009;28;19924;-71
2023/09/27 03:35:18;;;;;;;;;;;;;;;17.77;100.00;98393.94;5117788;28;19928;-71
2023/09/27 03:37:46;;;;;;;;;;;;;;;17.72;100.00;98406.75;5118405;28;20415;-71
2023/09/27 03:40:14;;;;;;;;;;;;;;;17.66;100.00;98400.66;5118721;28;19924;-71
2023/09/27 03:42:42;;;;;;;;;;;;;;;17.60;100.00;98411.81;5118340;28;19942;-71
2023/09/27 03:45:08;;;;;;;;;;;;;;;17.43;100.00;98408.81;5109949;28;19942;-71
2023/09/27 03:47:35;;;;;;;;;;;;;;;17.38;100.00;98417.03;5104003;28;19924;-71
2023/09/27 03:50:00;;;;;;;;;;;;;;;17.47;100.00;98421.47;5117643;28;19928;-71
2023/09/27 03:52:27;;;;;;;;;;;;;;;17.62;100.00;98406.91;5118302;28;19935;-71
2023/09/27 03:54:53;;;;;;;;;;;;;;;17.75;100.00;98403.47;5118979;28;19966;-72
2023/09/27 03:57:21;;;;;;;;;;;;;;;17.82;100.00;98403.88;5117337;28;19942;-71
2023/09/27 03:59:48;;;;;;;;;;;;;;;17.88;100.00;98410.78;5116988;28;19966;-70
2023/09/27 04:02:15;;;;;;;;;;;;;;;17.93;100.00;98412.59;5110933;28;19963;-70
2023/09/27 04:04:41;;;;;;;;;;;;;;;17.94;100.00;98415.00;5122172;28;19924;-70
2023/09/27 04:07:08;;;;;;;;;;;;;;;17.86;100.00;98415.66;5122816;28;19924;-71
2023/09/27 04:09:34;;;;;;;;;;;;;;;17.82;100.00;98411.97;5120250;28;19924;-71
2023/09/27 04:12:01;;;;;;;;;;;;;;;17.68;100.00;98408.44;5116964;28;19927;-71
2023/09/27 04:14:28;;;;;;;;;;;;;;;17.68;100.00;98406.53;5121248;28;19931;-71
2023/09/27 04:17:00;;;;;;;;;;;;;;;17.69;100.00;98401.94;5088392;28;19978;-71
2023/09/27 04:19:27;;;;;;;;;;;;;;;17.74;100.00;98399.16;5116250;28;19981;-70
2023/09/27 04:21:53;;;;;;;;;;;;;;;17.81;100.00;98399.56;5113973;28;20006;-72
2023/09/27 04:24:19;;;;;;;;;;;;;;;17.85;100.00;98397.06;5120433;28;19946;-71
2023/09/27 04:26:46;;;;;;;;;;;;;;;17.83;100.00;98408.16;5121159;28;19924;-71
2023/09/27 04:29:12;;;;;;;;;;;;;;;17.83;100.00;98402.75;5122552;28;19977;-71
2023/09/27 04:31:39;;;;;;;;;;;;;;;17.87;100.00;98408.38;5119858;28;19924;-70
2023/09/27 04:34:06;;;;;;;;;;;;;;;17.88;100.00;98400.00;5116387;28;19979;-71
2023/09/27 04:36:33;;;;;;;;;;;;;;;17.88;100.00;98410.00;5118699;28;20539;-71
2023/09/27 04:39:00;;;;;;;;;;;;;;;17.89;100.00;98415.06;5121039;28;19962;-71
2023/09/27 04:41:26;;;;;;;;;;;;;;;17.90;100.00;98415.88;5122437;28;19924;-71
2023/09/27 04:43:53;;;;;;;;;;;;;;;17.89;100.00;98417.78;5120814;28;19924;-71
2023/09/27 04:46:19;;;;;;;;;;;;;;;17.89;100.00;98425.13;5104947;28;19950;-71
2023/09/27 04:48:46;;;;;;;;;;;;;;;17.91;100.00;98434.50;5119223;28;19924;-71
2023/09/27 04:51:14;;;;;;;;;;;;;;;17.91;100.00;98431.81;5121276;28;19966;-71
2023/09/27 04:53:41;;;;;;;;;;;;;;;17.92;100.00;98438.03;5121833;28;19934;-71
2023/09/27 04:56:10;;;;;;;;;;;;;;;17.89;100.00;98438.63;5116040;28;19931;-71
2023/09/27 04:58:36;;;;;;;;;;;;;;;17.85;100.00;98426.78;5117447;28;19985;-71
2023/09/27 05:01:04;;;;;;;;;;;;;;;17.86;100.00;98434.59;5120442;28;19924;-71
2023/09/27 05:03:31;;;;;;;;;;;;;;;17.66;100.00;98434.94;5120299;28;19970;-71
2023/09/27 05:05:57;;;;;;;;;;;;;;;17.75;100.00;98433.97;5121435;28;19926;-71
2023/09/27 05:08:25;;;;;;;;;;;;;;;17.79;100.00;98442.28;5115643;28;19928;-71
2023/09/27 05:10:52;;;;;;;;;;;;;;;17.74;100.00;98437.78;5114913;28;19931;-71
2023/09/27 05:13:21;;;;;;;;;;;;;;;17.59;100.00;98450.72;5119297;28;20349;-71
2023/09/27 05:15:48;;;;;;;;;;;;;;;17.54;100.00;98456.19;5117927;28;19931;-71
2023/09/27 05:18:14;;;;;;;;;;;;;;;17.51;100.00;98456.78;5121394;28;19924;-71
2023/09/27 05:20:41;;;;;;;;;;;;;;;17.53;100.00;98458.09;5119072;28;19930;-71
2023/09/27 05:23:07;;;;;;;;;;;;;;;17.47;100.00;98456.56;5115128;28;19925;-71
2023/09/27 05:25:35;;;;;;;;;;;;;;;17.57;100.00;98458.34;5116914;28;19965;-71
2023/09/27 05:28:01;;;;;;;;;;;;;;;17.52;100.00;98456.47;5119684;28;19935;-71
2023/09/27 05:30:28;;;;;;;;;;;;;;;17.63;100.00;98459.84;5121105;28;19920;-71
2023/09/27 05:32:54;;;;;;;;;;;;;;;17.68;100.00;98459.75;5119724;28;19928;-71
2023/09/27 05:35:21;;;;;;;;;;;;;;;17.73;100.00;98457.00;5115595;28;19959;-71
2023/09/27 05:37:47;;;;;;;;;;;;;;;17.75;100.00;98452.09;5115280;28;19946;-71
2023/09/27 05:40:15;;;;;;;;;;;;;;;17.71;100.00;98462.69;5124904;27;19924;-72
2023/09/27 05:42:43;;;;;;;;;;;;;;;17.70;100.00;98471.88;5120739;28;19935;-71
2023/09/27 05:45:11;;;;;;;;;;;;;;;17.73;100.00;98471.28;5110879;28;19932;-71
2023/09/27 05:47:38;;;;;;;;;;;;;;;17.75;100.00;98477.22;5106185;28;19981;-70
2023/09/27 05:50:05;;;;;;;;;;;;;;;17.78;100.00;98478.50;5119892;28;19928;-70
2023/09/27 05:52:33;;;;;;;;;;;;;;;17.77;100.00;98476.91;5101840;28;19934;-71
2023/09/27 05:54:59;;;;;;;;;;;;;;;17.79;100.00;98480.13;5120236;28;20591;-71
2023/09/27 05:57:26;;;;;;;;;;;;;;;17.82;100.00;98479.53;5116992;28;19928;-71
2023/09/27 05:59:53;;;;;;;;;;;;;;;17.79;100.00;98470.09;5114505;28;19920;-70
2023/09/27 06:02:20;;;;;;;;;;;;;;;17.77;100.00;98476.91;5118923;28;19935;-70
2023/09/27 06:04:46;;;;;;;;;;;;;;;17.76;100.00;98472.59;5119809;28;19956;-70
2023/09/27 06:07:15;;;;;;;;;;;;;;;17.75;100.00;98493.41;5120618;28;19924;-72
2023/09/27 06:09:41;;;;;;;;;;;;;;;17.74;100.00;98488.28;5119509;28;19932;-70
2023/09/27 06:12:10;;;;;;;;;;;;;;;17.71;100.00;98478.88;5114672;28;19970;-70
2023/09/27 06:14:36;;;;;;;;;;;;;;;17.41;100.00;98475.84;5116148;28;19991;-71
2023/09/27 06:17:05;;;;;;;;;;;;;;;17.48;100.00;98470.88;5104337;28;19950;-70
2023/09/27 06:19:32;;;;;;;;;;;;;;;17.56;100.00;98491.81;5118644;28;19967;-71
2023/09/27 06:21:58;;;;;;;;;;;;;;;17.60;100.00;98490.97;5119759;28;19924;-71
2023/09/27 06:24:26;;;;;;;;;;;;;;;17.66;100.00;98488.97;5115077;28;19924;-71
2023/09/27 06:26:52;;;;;;;;;;;;;;;17.16;100.00;98485.91;5113507;28;20426;-71
2023/09/27 06:29:19;;;;;;;;;;;;;;;16.83;100.00;98486.91;5117930;28;19924;-71
2023/09/27 06:31:46;;;;;;;;;;;;;;;16.75;100.00;98495.63;5118949;28;19924;-71
2023/09/27 06:34:14;;;;;;;;;;;;;;;16.96;100.00;98486.16;5114185;28;19949;-71
2023/09/27 06:36:42;;;;;;;;;;;;;;;17.23;100.00;98497.16;5114585;28;19963;-71
2023/09/27 06:39:12;;;;;;;;;;;;;;;17.35;100.00;98494.00;5100215;28;19988;-70
2023/09/27 06:41:39;;;;;;;;;;;;;;;17.46;100.00;98500.03;5118200;28;19951;-70
2023/09/27 06:44:06;;;;;;;;;;;;;;;17.40;100.00;98502.03;5118587;28;19923;-70
2023/09/27 06:46:33;;;;;;;;;;;;;;;17.00;100.00;98503.41;5103796;28;19935;-71
2023/09/27 06:48:59;;;;;;;;;;;;;;;16.99;100.00;98501.78;5112282;28;19924;-71
2023/09/27 06:51:27;;;;;;;;;;;;;;;16.93;100.00;98489.44;5116925;28;19932;-70
2023/09/27 06:53:54;;;;;;;;;;;;;;;16.85;100.00;98506.28;5118531;28;19924;-71
2023/09/27 06:56:20;;;;;;;;;;;;;;;17.16;100.00;98506.69;5101027;28;19920;-71
2023/09/27 06:58:48;;;;;;;;;;;;;;;17.17;100.00;98509.13;5119990;28;19983;-70
2023/09/27 07:01:15;;;;;;;;;;;;;;;17.14;100.00;98512.38;5115694;28;19963;-72
2023/09/27 07:03:41;;;;;;;;;;;;;;;17.21;100.00;98512.00;5119664;28;19951;-71
2023/09/27 07:06:08;;;;;;;;;;;;;;;17.36;100.00;98527.22;5123729;28;19920;-71
2023/09/27 07:08:36;;;;;;;;;;;;;;;17.46;100.00;98538.66;5119736;28;19924;-71
2023/09/27 07:11:06;;;;;;;;;;;;;;;17.56;100.00;98527.75;5120071;28;19924;-69
2023/09/27 07:13:32;;;;;;;;;;;;;;;17.62;100.00;98523.88;5116177;28;19990;-70
2023/09/27 07:15:59;;;;;;;;;;;;;;;17.69;100.00;98528.91;5104857;28;19988;-72
2023/09/27 07:18:25;;;;;;;;;;;;;;;17.63;100.00;98535.47;5116708;28;19935;-71
2023/09/27 07:20:52;;;;;;;;;;;;;;;17.61;100.00;98534.94;5100562;28;20005;-71
2023/09/27 07:23:20;;;;;;;;;;;;;;;17.62;100.00;98541.97;5119491;28;19980;-70
2023/09/27 07:25:48;;;;;;;;;;;;;;;17.66;100.00;98556.50;5109762;28;19955;-72
2023/09/27 07:28:16;;;;;;;;;;;;;;;17.64;100.00;98545.19;5118029;28;20007;-71
2023/09/27 07:30:42;;;;;;;;;;;;;;;17.64;100.00;98550.59;5119567;28;19924;-71
2023/09/27 07:33:11;;;;;;;;;;;;;;;17.66;100.00;98543.81;5122645;28;19941;-71
2023/09/27 07:35:41;;;;;;;;;;;;;;;17.73;100.00;98548.84;5122254;28;19938;-71
2023/09/27 07:38:08;;;;;;;;;;;;;;;17.72;100.00;98541.81;5118101;28;19984;-71
2023/09/27 07:40:35;;;;;;;;;;;;;;;17.43;100.00;98543.84;5120122;28;19988;-70
2023/09/27 07:43:03;;;;;;;;;;;;;;;17.45;100.00;98541.66;5122175;28;19959;-70
2023/09/27 07:45:34;;;;;;;;;;;;;;;17.56;100.00;98543.13;5120390;28;19928;-70
2023/09/27 07:48:00;;;;;;;;;;;;;;;17.57;100.00;98544.75;5122787;28;19923;-71
2023/09/27 07:50:31;;;;;;;;;;;;;;;17.48;100.00;98551.88;5118465;28;20019;-71
2023/09/27 07:52:57;;;;;;;;;;;;;;;17.51;100.00;98556.69;5117109;28;19924;-73
2023/09/27 07:55:24;;;;;;;;;;;;;;;17.61;100.00;98551.16;5120546;28;19924;-71
2023/09/27 07:57:52;;;;;;;;;;;;;;;17.72;100.00;98555.34;5121730;28;19928;-71
2023/09/27 08:00:25;;;;;;;;;;;;;;;17.72;100.00;98558.84;5104482;28;19932;-71
2023/09/27 08:02:52;;;;;;;;;;;;;;;17.72;100.00;98558.84;5122109;28;19947;-71
2023/09/27 08:05:19;;;;;;;;;;;;;;;17.83;100.00;98559.47;5117247;28;19970;-71
2023/09/27 08:07:46;;;;;;;;;;;;;;;17.81;100.00;98556.28;5117145;28;19977;-71
2023/09/27 08:10:12;;;;;;;;;;;;;;;17.83;100.00;98556.78;5121556;28;19928;-71
2023/09/27 08:12:39;;;;;;;;;;;;;;;17.91;100.00;98550.72;5122673;28;19946;-71
2023/09/27 08:15:06;;;;;;;;;;;;;;;17.80;100.00;98547.34;5120703;28;19920;-71
2023/09/27 08:17:34;;;;;;;;;;;;;;;17.80;100.00;98547.34;5108690;28;19924;-71
2023/09/27 08:20:03;;;;;;;;;;;;;;;17.86;100.00;98547.28;5121463;28;19935;-71
2023/09/27 08:22:31;;;;;;;;;;;;;;;17.90;100.00;98554.50;5122168;28;19924;-71
2023/09/27 08:24:57;;;;;;;;;;;;;;;17.92;100.00;98554.22;5122586;28;19920;-72
2023/09/27 08:27:25;;;;;;;;;;;;;;;17.92;100.00;98555.00;5119469;28;19920;-69
2023/09/27 08:29:52;;;;;;;;;;;;;;;17.98;100.00;98551.13;5116682;28;19928;-71
2023/09/27 08:32:18;;;;;;;;;;;;;;;17.86;100.00;98566.22;5121337;28;19946;-71
2023/09/27 08:34:46;;;;;;;;;;;;;;;17.87;100.00;98552.38;5122073;28;19931;-71
2023/09/27 08:37:13;;;;;;;;;;;;;;;17.72;100.00;98547.22;5122612;28;19932;-71
2023/09/27 08:39:39;;;;;;;;;;;;;;;17.69;100.00;98555.91;5121414;28;19923;-71
2023/09/27 08:42:05;;;;;;;;;;;;;;;17.47;100.00;98556.47;5116428;28;19935;-71
2023/09/27 08:44:32;;;;;;;;;;;;;;;17.21;100.00;98556.00;5120625;28;19955;-71
2023/09/27 08:46:59;;;;;;;;;;;;;;;17.21;100.00;98541.69;5106796;28;19987;-71
2023/09/27 08:49:25;;;;;;;;;;;;;;;17.31;100.00;98544.28;5122112;28;19924;-71
2023/09/27 08:51:53;;;;;;;;;;;;;;;17.50;100.00;98544.28;5121386;28;19924;-71
2023/09/27 08:54:22;;;;;;;;;;;;;;;17.62;100.00;98536.56;5116750;28;19931;-71
2023/09/27 08:56:50;;;;;;;;;;;;;;;17.72;100.00;98541.81;5116420;28;19955;-71
2023/09/27 08:59:18;;;;;;;;;;;;;;;17.63;100.00;98538.19;5110615;28;19924;-71
2023/09/27 09:01:45;;;;;;;;;;;;;;;17.74;100.00;98534.22;5121832;28;19924;-71
2023/09/27 09:04:12;;;;;;;;;;;;;;;17.75;100.00;98536.66;5122669;28;19924;-71
2023/09/27 09:06:40;;;;;;;;;;;;;;;17.79;100.00;98536.84;5113236;28;19924;-71
2023/09/27 09:09:11;;;;;;;;;;;;;;;17.66;100.00;98533.00;5120423;28;19924;-71
2023/09/27 09:11:38;;;;;;;;;;;;;;;17.52;100.00;98542.09;5120551;28;19997;-71
2023/09/27 09:14:05;;;;;;;;;;;;;;;17.48;100.00;98533.78;5120526;28;20615;-71
2023/09/27 09:16:39;;;;;;;;;;;;;;;17.39;100.00;98543.63;5106211;28;19924;-71
2023/09/27 09:19:19;;;;;;;;;;;;;;;17.53;100.00;98533.69;5115473;28;19938;-71
2023/09/27 09:21:46;;;;;;;;;;;;;;;17.67;100.00;98536.50;5116395;28;19958;-71
2023/09/27 09:24:19;;;;;;;;;;;;;;;17.80;100.00;98528.44;5120688;28;19955;-71
2023/09/27 09:26:46;;;;;;;;;;;;;;;17.56;100.00;98527.75;5120760;28;19963;-71
2023/09/27 09:29:12;;;;;;;;;;;;;;;17.36;100.00;98529.91;5121176;28;19950;-71
2023/09/27 09:31:39;;;;;;;;;;;;;;;17.38;100.00;98538.53;5119603;28;19931;-71
2023/09/27 09:34:06;;;;;;;;;;;;;;;17.53;100.00;98532.91;5116408;28;19924;-71
2023/09/27 09:36:33;;;;;;;;;;;;;;;17.69;100.00;98521.59;5118683;28;19924;-72
2023/09/27 09:39:06;;;;;;;;;;;;;;;17.87;100.00;98530.78;5120970;28;19923;-71
2023/09/27 09:41:47;;;;;;;;;;;;;;;18.03;100.00;98520.50;5121402;28;19928;-71
2023/09/27 09:44:20;;;;;;;;;;;;;;;18.13;100.00;98520.34;5122461;28;20198;-72
2023/09/27 09:46:47;;;;;;;;;;;;;;;17.92;100.00;98525.28;5105665;28;19924;-72
2023/09/27 09:49:14;;;;;;;;;;;;;;;17.69;100.00;98531.59;5121064;28;19935;-71
2023/09/27 09:51:41;;;;;;;;;;;;;;;17.69;100.00;98521.59;5117439;28;19924;-72
2023/09/27 09:54:08;;;;;;;;;;;;;;;17.68;100.00;98520.00;5120314;28;19928;-71
2023/09/27 09:56:35;;;;;;;;;;;;;;;17.76;100.00;98526.63;5121003;28;20571;-71
2023/09/27 09:59:07;;;;;;;;;;;;;;;17.63;100.00;98527.38;5112306;28;20073;-71
2023/09/27 10:01:37;;;;;;;;;;;;;;;17.62;100.00;98526.56;5116551;28;19967;-72
2023/09/27 10:04:05;;;;;;;;;;;;;;;17.69;100.00;98524.31;5119277;28;19928;-72
2023/09/27 10:06:32;;;;;;;;;;;;;;;17.60;100.00;98523.38;5119335;28;19924;-71
2023/09/27 10:09:01;;;;;;;;;;;;;;;17.65;100.00;98522.47;5119949;28;19979;-71
2023/09/27 10:11:28;;;;;;;;;;;;;;;17.82;100.00;98514.66;5116935;28;19966;-72
2023/09/27 10:13:55;;;;;;;;;;;;;;;18.12;100.00;98511.44;5114277;28;19924;-72
2023/09/27 10:16:24;;;;;;;;;;;;;;;18.11;100.00;98517.13;5099086;28;19924;-71
2023/09/27 10:18:50;;;;;;;;;;;;;;;18.37;100.00;98501.25;5119575;28;19924;-71
2023/09/27 10:21:16;;;;;;;;;;;;;;;18.69;100.00;98495.81;5121158;28;19931;-70
2023/09/27 10:24:01;;;;;;;;;;;;;;;18.48;100.00;98494.53;5119347;28;20415;-71
2023/09/27 10:26:32;;;;;;;;;;;;;;;18.34;100.00;98489.94;5113655;28;19987;-71
2023/09/27 10:29:13;;;;;;;;;;;;;;;18.36;100.00;98481.53;5114142;28;19947;-72
2023/09/27 10:32:00;;;;;;;;;;;;;;;18.74;100.00;98479.47;5116101;28;20442;-72
2023/09/27 10:34:41;;;;;;;;;;;;;;;18.98;100.00;98476.50;5113595;28;20376;-72
2023/09/27 10:37:07;;;;;;;;;;;;;;;18.75;100.00;98468.31;5121341;28;19924;-72
2023/09/27 10:39:33;;;;;;;;;;;;;;;18.54;100.00;98463.63;5120938;28;19928;-72
2023/09/27 10:42:00;;;;;;;;;;;;;;;18.50;100.00;98470.75;5120025;28;19947;-71
2023/09/27 10:44:28;;;;;;;;;;;;;;;18.43;100.00;98459.50;5111792;28;20029;-72
2023/09/27 10:46:54;;;;;;;;;;;;;;;18.53;100.00;98460.13;5105084;28;20007;-71
2023/09/27 10:49:21;;;;;;;;;;;;;;;18.65;100.00;98454.22;5118383;28;19925;-71
2023/09/27 10:51:49;;;;;;;;;;;;;;;18.95;100.00;98456.28;5119547;28;19923;-71
2023/09/27 10:54:15;;;;;;;;;;;;;;;18.97;100.00;98447.88;5113764;28;19924;-72
2023/09/27 10:56:42;;;;;;;;;;;;;;;19.26;100.00;98438.25;5114774;28;19924;-71
2023/09/27 10:59:08;;;;;;;;;;;;;;;19.29;100.00;98434.13;5118369;28;19924;-71
2023/09/27 11:01:35;;;;;;;;;;;;;;;19.34;100.00;98436.72;5118734;28;19970;-71
2023/09/27 11:04:03;;;;;;;;;;;;;;;19.36;100.00;98427.19;5119785;28;19931;-71
2023/09/27 11:06:31;;;;;;;;;;;;;;;19.48;100.00;98421.22;5115101;28;20602;-71
2023/09/27 11:09:06;;;;;;;;;;;;;;;19.63;100.00;98425.47;5113915;28;19942;-71
2023/09/27 11:11:32;;;;;;;;;;;;;;;19.99;100.00;98419.94;5116669;28;19924;-72
2023/09/27 11:13:59;;;;;;;;;;;;;;;19.77;100.00;98410.75;5118875;28;19928;-72
2023/09/27 11:16:25;;;;;;;;;;;;;;;19.70;100.00;98398.75;5103677;28;19924;-71
2023/09/27 11:18:52;;;;;;;;;;;;;;;19.68;100.00;98409.09;5119145;28;19955;-71
2023/09/27 11:21:19;;;;;;;;;;;;;;;19.60;100.00;98399.78;5113474;28;19924;-72
2023/09/27 11:23:51;;;;;;;;;;;;;;;19.80;100.00;98406.63;5114102;28;19928;-71
2023/09/27 11:26:19;;;;;;;;;;;;;;;19.83;100.00;98395.16;5111219;28;19938;-72
2023/09/27 11:28:46;;;;;;;;;;;;;;;19.98;100.00;98402.88;5120250;28;19928;-71
2023/09/27 11:31:22;;;;;;;;;;;;;;;20.16;100.00;98393.69;5119396;28;19924;-73
2023/09/27 11:33:48;;;;;;;;;;;;;;;20.42;100.00;98396.53;5118038;28;19923;-72
2023/09/27 11:36:14;;;;;;;;;;;;;;;20.64;100.00;98392.94;5109763;28;19954;-71
2023/09/27 11:38:47;;;;;;;;;;;;;;;20.55;100.00;98392.09;5117301;28;19924;-71
2023/09/27 11:41:16;;;;;;;;;;;;;;;20.36;100.00;98376.88;5118004;28;19939;-72
2023/09/27 11:43:45;;;;;;;;;;;;;;;20.73;100.00;98377.44;5118846;28;19982;-72
2023/09/27 11:46:11;;;;;;;;;;;;;;;20.72;100.00;98383.97;5103353;28;19928;-72
2023/09/27 11:48:39;;;;;;;;;;;;;;;20.71;100.00;98376.94;5111247;28;19924;-70
2023/09/27 11:51:05;;;;;;;;;;;;;;;20.86;100.00;98365.63;5118442;28;19924;-71
2023/09/27 11:53:32;;;;;;;;;;;;;;;20.85;100.00;98364.03;5100161;28;19928;-72
2023/09/27 11:55:59;;;;;;;;;;;;;;;20.93;100.00;98364.03;5119523;28;19924;-72
2023/09/27 11:58:26;;;;;;;;;;;;;;;20.72;100.00;98367.69;5114770;28;19981;-72
2023/09/27 12:00:54;;;;;;;;;;;;;;;20.65;100.00;98367.38;5113229;28;19923;-72
2023/09/27 12:03:20;;;;;;;;;;;;;;;20.57;100.00;98355.41;5117727;28;19925;-70
2023/09/27 12:05:48;;;;;;;;;;;;;;;20.60;100.00;98348.53;5118142;28;19935;-70
2023/09/27 12:08:14;;;;;;;;;;;;;;;20.63;100.00;98356.03;5119735;28;20035;-71
2023/09/27 12:10:41;;;;;;;;;;;;;;;20.73;100.00;98345.69;5116695;28;19970;-72
2023/09/27 12:13:07;;;;;;;;;;;;;;;20.74;100.00;98341.03;5113315;28;19991;-72
2023/09/27 12:15:34;;;;;;;;;;;;;;;20.74;100.00;98339.13;5110345;28;19921;-72
2023/09/27 12:18:01;;;;;;;;;;;;;;;20.80;100.00;98339.75;5115979;28;20034;-72
2023/09/27 12:20:30;;;;;;;;;;;;;;;20.84;100.00;98338.00;5122796;28;19924;-70
2023/09/27 12:22:56;;;;;;;;;;;;;;;20.90;100.00;98331.28;5121265;28;19924;-71
2023/09/27 12:25:23;;;;;;;;;;;;;;;20.89;100.00;98321.53;5117466;28;19965;-72
2023/09/27 12:27:49;;;;;;;;;;;;;;;20.93;100.00;98325.22;5116704;28;19928;-71
2023/09/27 12:30:16;;;;;;;;;;;;;;;20.95;100.00;98325.72;5094524;28;19935;-72
2023/09/27 12:32:41;;;;;;;;;;;;;;;21.15;100.00;98316.13;5121303;28;19935;-72
2023/09/27 12:35:09;;;;;;;;;;;;;;;21.16;100.00;98315.03;5116358;28;20020;-72
2023/09/27 12:37:36;;;;;;;;;;;;;;;21.11;100.00;98315.19;5118655;28;19924;-73